Time;durP1;ratioP1;P1;durP2;ratioP2;P2;SDS_P1;SDS_P2;PMS_P1;PMS_P2;Temp;Humidity;BMP_temperature;BMP_pressure;BME280_temperature;BME280_humidity;BME280_pressure;Samples;Min_cycle;Max_cycle;Signal;HPM_P1;HPM_P2
2023/12/19 00:01:33;;;;;;;9.00;4.30;;;;;;;;;;5076521;28;20213;-77
2023/12/19 00:03:59;;;;;;;6.23;3.97;;;;;;;;;;5068781;28;20225;-77
2023/12/19 00:06:25;;;;;;;9.00;4.80;;;;;;;;;;5072767;28;20213;-77
2023/12/19 00:08:51;;;;;;;8.47;4.10;;;;;;;;;;5071881;28;20755;-77
2023/12/19 00:11:17;;;;;;;8.27;4.70;;;;;;;;;;5078016;28;20209;-77
2023/12/19 00:13:43;;;;;;;7.03;4.33;;;;;;;;;;5067098;28;20753;-76
2023/12/19 00:16:09;;;;;;;7.17;3.63;;;;;;;;;;5072703;28;20286;-78
2023/12/19 00:18:35;;;;;;;7.07;3.80;;;;;;;;;;5074887;28;20676;-77
2023/12/19 00:21:01;;;;;;;7.60;4.07;;;;;;;;;;5073703;28;20182;-76
2023/12/19 00:23:30;;;;;;;5.37;3.40;;;;;;;;;;5074411;28;20171;-77
2023/12/19 00:25:57;;;;;;;4.77;3.40;;;;;;;;;;5072445;28;20225;-78
2023/12/19 00:28:23;;;;;;;5.50;3.23;;;;;;;;;;5078488;28;20212;-78
2023/12/19 00:30:49;;;;;;;5.00;3.63;;;;;;;;;;5075501;28;20222;-78
2023/12/19 00:33:15;;;;;;;4.70;3.53;;;;;;;;;;5069883;28;20214;-78
2023/12/19 00:35:41;;;;;;;5.37;3.23;;;;;;;;;;5070629;28;20707;-74
2023/12/19 00:38:07;;;;;;;7.13;3.70;;;;;;;;;;5070987;28;20211;-77
2023/12/19 00:40:33;;;;;;;8.00;4.10;;;;;;;;;;5070257;28;20263;-77
2023/12/19 00:42:59;;;;;;;5.63;3.40;;;;;;;;;;5072358;28;20612;-76
2023/12/19 00:45:25;;;;;;;5.37;3.53;;;;;;;;;;5071244;28;20751;-76
2023/12/19 00:47:51;;;;;;;5.87;3.30;;;;;;;;;;5074286;28;20198;-76
2023/12/19 00:50:18;;;;;;;4.57;3.10;;;;;;;;;;5069819;28;20218;-76
2023/12/19 00:52:44;;;;;;;6.40;2.87;;;;;;;;;;5069599;28;20606;-77
2023/12/19 00:55:10;;;;;;;6.00;3.40;;;;;;;;;;5066670;28;20198;-76
2023/12/19 00:57:36;;;;;;;6.03;3.40;;;;;;;;;;5073022;28;20202;-76
2023/12/19 01:00:02;;;;;;;5.87;3.30;;;;;;;;;;5074557;28;20183;-76
2023/12/19 01:02:29;;;;;;;4.80;3.33;;;;;;;;;;5071242;28;20214;-76
2023/12/19 01:04:58;;;;;;;6.63;3.57;;;;;;;;;;5062821;28;20326;-76
2023/12/19 01:07:24;;;;;;;4.10;2.97;;;;;;;;;;5073015;28;20578;-76
2023/12/19 01:09:50;;;;;;;4.10;3.17;;;;;;;;;;5068764;28;20261;-76
2023/12/19 01:12:20;;;;;;;4.83;3.13;;;;;;;;;;5065759;28;20203;-77
2023/12/19 01:14:46;;;;;;;5.83;3.23;;;;;;;;;;5077578;28;20181;-78
2023/12/19 01:17:12;;;;;;;5.80;3.13;;;;;;;;;;5075518;28;20214;-77
2023/12/19 01:19:38;;;;;;;4.63;2.97;;;;;;;;;;5071703;28;20673;-78
2023/12/19 01:22:04;;;;;;;4.43;3.13;;;;;;;;;;5056684;28;20221;-77
2023/12/19 01:24:30;;;;;;;5.20;3.77;;;;;;;;;;5053841;28;20209;-76
2023/12/19 01:26:56;;;;;;;4.63;3.00;;;;;;;;;;5070542;28;20229;-76
2023/12/19 01:29:23;;;;;;;5.03;2.83;;;;;;;;;;5079047;28;20209;-77
2023/12/19 01:31:49;;;;;;;5.93;3.60;;;;;;;;;;5072407;28;20210;-78
2023/12/19 01:34:15;;;;;;;6.40;3.47;;;;;;;;;;5071587;28;20195;-77
2023/12/19 01:36:41;;;;;;;5.80;3.13;;;;;;;;;;5078337;28;20217;-77
2023/12/19 01:39:08;;;;;;;5.90;3.60;;;;;;;;;;5069108;28;20222;-78
2023/12/19 01:41:34;;;;;;;4.10;3.20;;;;;;;;;;5068744;28;20210;-77
2023/12/19 01:44:00;;;;;;;4.67;3.67;;;;;;;;;;5068393;28;20217;-78
2023/12/19 01:46:26;;;;;;;4.57;2.97;;;;;;;;;;5066506;28;20217;-76
2023/12/19 01:48:52;;;;;;;6.10;3.40;;;;;;;;;;5070072;28;20648;-77
2023/12/19 01:51:18;;;;;;;5.93;3.83;;;;;;;;;;5065376;28;20243;-77
2023/12/19 01:53:49;;;;;;;5.13;3.50;;;;;;;;;;5075742;28;20213;-77
2023/12/19 01:56:16;;;;;;;7.10;3.93;;;;;;;;;;5076508;28;20210;-76
2023/12/19 01:58:43;;;;;;;7.90;4.20;;;;;;;;;;5069245;28;20214;-77
2023/12/19 02:01:10;;;;;;;4.80;3.33;;;;;;;;;;5076361;28;20218;-77
2023/12/19 02:03:36;;;;;;;6.83;3.60;;;;;;;;;;5066235;28;20272;-76
2023/12/19 02:06:03;;;;;;;4.40;3.07;;;;;;;;;;5066963;28;20237;-76
2023/12/19 02:08:29;;;;;;;4.47;3.03;;;;;;;;;;5078442;28;20205;-78
2023/12/19 02:10:55;;;;;;;6.23;3.83;;;;;;;;;;5074895;28;20215;-77
2023/12/19 02:13:21;;;;;;;9.10;3.60;;;;;;;;;;5077572;28;20300;-77
2023/12/19 02:15:51;;;;;;;4.93;3.63;;;;;;;;;;5081558;28;20350;-77
2023/12/19 02:18:18;;;;;;;8.23;3.50;;;;;;;;;;5071188;28;20256;-77
2023/12/19 02:20:44;;;;;;;6.27;3.60;;;;;;;;;;5076989;28;20218;-77
2023/12/19 02:23:19;;;;;;;5.23;3.33;;;;;;;;;;5054195;28;20742;-77
2023/12/19 02:25:46;;;;;;;7.23;4.20;;;;;;;;;;5076618;28;20217;-76
2023/12/19 02:28:12;;;;;;;4.80;3.13;;;;;;;;;;5065058;28;20315;-79
2023/12/19 02:30:39;;;;;;;6.53;3.50;;;;;;;;;;5077363;28;20214;-76
2023/12/19 02:33:05;;;;;;;4.40;3.60;;;;;;;;;;5076434;28;20171;-76
2023/12/19 02:35:31;;;;;;;6.77;3.77;;;;;;;;;;5075833;28;20248;-76
2023/12/19 02:37:57;;;;;;;6.00;3.77;;;;;;;;;;5066138;28;20309;-75
2023/12/19 02:40:23;;;;;;;4.87;3.73;;;;;;;;;;5078118;28;20696;-76
2023/12/19 02:42:49;;;;;;;6.23;4.17;;;;;;;;;;5078234;28;20214;-75
2023/12/19 02:45:16;;;;;;;3.70;2.90;;;;;;;;;;5072010;28;20195;-75
2023/12/19 02:47:42;;;;;;;4.53;3.23;;;;;;;;;;5073344;28;20199;-75
2023/12/19 02:50:08;;;;;;;6.30;3.43;;;;;;;;;;5074655;28;20231;-76
2023/12/19 02:52:34;;;;;;;5.10;3.47;;;;;;;;;;5079353;28;20625;-75
2023/12/19 02:55:00;;;;;;;5.77;3.17;;;;;;;;;;5077858;28;20293;-76
2023/12/19 02:57:26;;;;;;;5.27;3.23;;;;;;;;;;5078914;28;20215;-74
2023/12/19 02:59:52;;;;;;;4.93;3.47;;;;;;;;;;5073942;28;20269;-76
2023/12/19 03:02:18;;;;;;;5.47;3.63;;;;;;;;;;5078126;28;20628;-76
2023/12/19 03:04:44;;;;;;;8.10;3.93;;;;;;;;;;5058710;28;20735;-77
2023/12/19 03:07:10;;;;;;;7.47;3.77;;;;;;;;;;5074381;28;20222;-77
2023/12/19 03:09:37;;;;;;;4.77;3.50;;;;;;;;;;5070632;28;20286;-76
2023/12/19 03:12:04;;;;;;;7.03;4.13;;;;;;;;;;5074775;28;20174;-75
2023/12/19 03:14:34;;;;;;;6.53;4.30;;;;;;;;;;5076873;28;20679;-76
2023/12/19 03:17:01;;;;;;;7.30;4.10;;;;;;;;;;5078058;28;20241;-76
2023/12/19 03:19:27;;;;;;;7.07;4.37;;;;;;;;;;5074734;28;20214;-77
2023/12/19 03:21:53;;;;;;;8.50;4.67;;;;;;;;;;5075535;28;20198;-77
2023/12/19 03:24:19;;;;;;;7.13;4.23;;;;;;;;;;5074222;28;20232;-76
2023/12/19 03:26:45;;;;;;;9.87;4.80;;;;;;;;;;5079219;28;20199;-77
2023/12/19 03:29:11;;;;;;;7.97;4.40;;;;;;;;;;5069895;28;20284;-77
2023/12/19 03:31:37;;;;;;;8.50;4.80;;;;;;;;;;5074973;28;20291;-77
2023/12/19 03:34:03;;;;;;;7.23;4.27;;;;;;;;;;5053638;28;20289;-78
2023/12/19 03:36:29;;;;;;;7.00;4.67;;;;;;;;;;5074919;28;20232;-77
2023/12/19 03:38:55;;;;;;;7.60;4.30;;;;;;;;;;5075237;28;20176;-77
2023/12/19 03:41:21;;;;;;;6.27;4.40;;;;;;;;;;5069424;28;20183;-78
2023/12/19 03:43:47;;;;;;;7.27;4.43;;;;;;;;;;5073255;28;20195;-78
2023/12/19 03:46:14;;;;;;;8.10;5.33;;;;;;;;;;5073686;28;20695;-77
2023/12/19 03:48:41;;;;;;;7.27;4.87;;;;;;;;;;5074940;28;20199;-78
2023/12/19 03:51:07;;;;;;;8.90;5.70;;;;;;;;;;5070487;28;20226;-77
2023/12/19 03:53:34;;;;;;;8.17;4.70;;;;;;;;;;5067106;28;20186;-77
2023/12/19 03:56:00;;;;;;;7.03;4.67;;;;;;;;;;5064192;28;20276;-75
2023/12/19 03:58:26;;;;;;;5.90;4.57;;;;;;;;;;5075104;28;20302;-77
2023/12/19 04:00:52;;;;;;;9.60;5.27;;;;;;;;;;5077686;28;20242;-77
2023/12/19 04:03:18;;;;;;;8.43;5.10;;;;;;;;;;5069864;28;20630;-77
2023/12/19 04:05:44;;;;;;;9.83;5.07;;;;;;;;;;5074635;28;20652;-77
2023/12/19 04:08:10;;;;;;;7.37;4.53;;;;;;;;;;5069428;28;20217;-78
2023/12/19 04:10:36;;;;;;;7.13;5.23;;;;;;;;;;5075974;28;20241;-76
2023/12/19 04:13:02;;;;;;;8.83;4.93;;;;;;;;;;5078447;28;20221;-78
2023/12/19 04:15:30;;;;;;;7.53;4.80;;;;;;;;;;5072570;28;20581;-77
2023/12/19 04:17:56;;;;;;;13.67;5.53;;;;;;;;;;5075450;28;20286;-75
2023/12/19 04:20:22;;;;;;;6.77;4.47;;;;;;;;;;5072552;28;20266;-77
2023/12/19 04:22:48;;;;;;;8.67;5.10;;;;;;;;;;5072757;28;20230;-77
2023/12/19 04:25:14;;;;;;;9.00;5.00;;;;;;;;;;5075271;28;20230;-77
2023/12/19 04:27:40;;;;;;;7.60;4.97;;;;;;;;;;5069661;28;20760;-78
2023/12/19 04:30:06;;;;;;;8.20;5.23;;;;;;;;;;5072789;28;20227;-78
2023/12/19 04:32:32;;;;;;;7.87;5.30;;;;;;;;;;5067154;28;20190;-77
2023/12/19 04:34:58;;;;;;;8.40;5.37;;;;;;;;;;5070880;28;20203;-77
2023/12/19 04:37:24;;;;;;;9.37;5.40;;;;;;;;;;5071391;28;20219;-76
2023/12/19 04:39:50;;;;;;;9.17;5.20;;;;;;;;;;5072849;28;20195;-77
2023/12/19 04:42:19;;;;;;;9.40;5.53;;;;;;;;;;5069739;28;20219;-76
2023/12/19 04:44:46;;;;;;;7.30;4.60;;;;;;;;;;5071886;28;20189;-78
2023/12/19 04:47:12;;;;;;;7.33;5.10;;;;;;;;;;5052611;28;20243;-77
2023/12/19 04:49:39;;;;;;;9.77;6.00;;;;;;;;;;5073691;28;20287;-77
2023/12/19 04:52:05;;;;;;;8.83;5.50;;;;;;;;;;5068935;28;20197;-76
2023/12/19 04:54:31;;;;;;;7.90;5.00;;;;;;;;;;5060934;28;20238;-77
2023/12/19 04:56:57;;;;;;;9.93;5.03;;;;;;;;;;5071186;28;20202;-78
2023/12/19 04:59:23;;;;;;;9.80;5.47;;;;;;;;;;5064567;28;20260;-77
2023/12/19 05:01:49;;;;;;;9.30;5.17;;;;;;;;;;5072065;28;20218;-78
2023/12/19 05:04:15;;;;;;;7.70;5.07;;;;;;;;;;5067774;28;20256;-76
2023/12/19 05:06:41;;;;;;;8.40;5.27;;;;;;;;;;5069354;28;20214;-77
2023/12/19 05:09:08;;;;;;;7.10;5.13;;;;;;;;;;5074881;28;20214;-77
2023/12/19 05:11:34;;;;;;;8.97;4.90;;;;;;;;;;5071001;28;20191;-76
2023/12/19 05:14:00;;;;;;;9.00;5.40;;;;;;;;;;5065838;28;20202;-78
2023/12/19 05:16:26;;;;;;;7.90;5.20;;;;;;;;;;5074175;28;20206;-76
2023/12/19 05:18:52;;;;;;;7.57;4.90;;;;;;;;;;5069218;28;20206;-76
2023/12/19 05:21:20;;;;;;;8.20;5.63;;;;;;;;;;5068878;28;20206;-75
2023/12/19 05:23:47;;;;;;;14.30;5.17;;;;;;;;;;5068421;28;20593;-76
2023/12/19 05:26:13;;;;;;;7.97;4.73;;;;;;;;;;5071989;28;20203;-76
2023/12/19 05:28:39;;;;;;;6.13;4.67;;;;;;;;;;5072745;28;20199;-76
2023/12/19 05:31:06;;;;;;;7.60;4.80;;;;;;;;;;5070689;28;20626;-76
2023/12/19 05:33:33;;;;;;;9.03;4.67;;;;;;;;;;5072085;28;20218;-76
2023/12/19 05:35:59;;;;;;;6.93;4.77;;;;;;;;;;5074890;28;20182;-78
2023/12/19 05:38:25;;;;;;;6.73;4.50;;;;;;;;;;5078009;28;20190;-76
2023/12/19 05:40:57;;;;;;;11.07;4.73;;;;;;;;;;5077745;28;20230;-76
2023/12/19 05:43:23;;;;;;;8.07;5.03;;;;;;;;;;5070566;28;20676;-74
2023/12/19 05:45:49;;;;;;;5.63;4.63;;;;;;;;;;5061754;28;20328;-77
2023/12/19 05:48:15;;;;;;;7.27;5.13;;;;;;;;;;5077147;28;20213;-77
2023/12/19 05:50:41;;;;;;;11.27;5.27;;;;;;;;;;5083910;28;20210;-77
2023/12/19 05:53:08;;;;;;;7.77;4.97;;;;;;;;;;5074226;28;20206;-76
2023/12/19 05:55:34;;;;;;;10.03;5.00;;;;;;;;;;5061694;28;20811;-76
2023/12/19 05:58:00;;;;;;;10.00;4.60;;;;;;;;;;5077622;28;20210;-77
2023/12/19 06:00:26;;;;;;;8.87;5.00;;;;;;;;;;5081482;28;20226;-76
2023/12/19 06:02:52;;;;;;;8.30;5.20;;;;;;;;;;5080711;28;20615;-76
2023/12/19 06:05:18;;;;;;;7.77;4.70;;;;;;;;;;5070968;28;20207;-76
2023/12/19 06:07:44;;;;;;;7.90;4.93;;;;;;;;;;5079770;28;20218;-77
2023/12/19 06:10:11;;;;;;;9.73;5.73;;;;;;;;;;5077973;28;20290;-76
2023/12/19 06:12:37;;;;;;;8.87;4.73;;;;;;;;;;5077209;28;21072;-76
2023/12/19 06:15:08;;;;;;;8.53;5.00;;;;;;;;;;5077309;28;20723;-75
2023/12/19 06:17:34;;;;;;;8.17;4.83;;;;;;;;;;5077263;28;20217;-77
2023/12/19 06:20:00;;;;;;;7.83;5.10;;;;;;;;;;5080926;28;20206;-77
2023/12/19 06:22:26;;;;;;;8.37;4.73;;;;;;;;;;5075382;28;20240;-77
2023/12/19 06:24:53;;;;;;;8.20;5.00;;;;;;;;;;5075142;28;20215;-77
2023/12/19 06:27:20;;;;;;;7.63;4.50;;;;;;;;;;5080302;28;20230;-77
2023/12/19 06:29:46;;;;;;;5.97;4.40;;;;;;;;;;5086503;28;20257;-76
2023/12/19 06:32:12;;;;;;;7.83;4.53;;;;;;;;;;5081716;28;20261;-77
2023/12/19 06:34:38;;;;;;;8.20;5.00;;;;;;;;;;5077626;28;20195;-77
2023/12/19 06:37:04;;;;;;;7.00;4.63;;;;;;;;;;5084497;28;20213;-77
2023/12/19 06:39:30;;;;;;;6.60;4.60;;;;;;;;;;5078356;28;20661;-78
2023/12/19 06:41:56;;;;;;;8.50;4.90;;;;;;;;;;5086087;28;20186;-76
2023/12/19 06:44:23;;;;;;;6.77;3.97;;;;;;;;;;5080100;28;20304;-77
2023/12/19 06:46:50;;;;;;;7.20;4.43;;;;;;;;;;5079556;28;20697;-77
2023/12/19 06:49:17;;;;;;;6.20;4.30;;;;;;;;;;5079171;28;20268;-74
2023/12/19 06:51:43;;;;;;;7.20;4.90;;;;;;;;;;5075415;28;20223;-77
2023/12/19 06:54:09;;;;;;;7.60;4.67;;;;;;;;;;5073535;28;20817;-77
2023/12/19 06:56:35;;;;;;;8.23;4.43;;;;;;;;;;5077130;28;20221;-76
2023/12/19 06:59:01;;;;;;;10.03;4.67;;;;;;;;;;5072919;28;20576;-76
2023/12/19 07:01:28;;;;;;;7.33;4.30;;;;;;;;;;5074349;28;20213;-76
2023/12/19 07:03:54;;;;;;;8.17;4.60;;;;;;;;;;5078948;28;20651;-75
2023/12/19 07:06:20;;;;;;;5.63;3.97;;;;;;;;;;5070928;28;20289;-76
2023/12/19 07:08:46;;;;;;;9.10;4.23;;;;;;;;;;5081463;28;20235;-75
2023/12/19 07:11:14;;;;;;;5.63;4.30;;;;;;;;;;5070440;28;20203;-76
2023/12/19 07:13:40;;;;;;;6.13;4.23;;;;;;;;;;5074326;28;20231;-77
2023/12/19 07:16:06;;;;;;;7.30;4.30;;;;;;;;;;5072416;28;20268;-77
2023/12/19 07:18:32;;;;;;;6.40;3.60;;;;;;;;;;5071694;28;20316;-75
2023/12/19 07:20:58;;;;;;;5.57;3.63;;;;;;;;;;5078295;28;20265;-76
2023/12/19 07:23:25;;;;;;;8.27;4.57;;;;;;;;;;5068207;28;20738;-74
2023/12/19 07:25:51;;;;;;;5.87;3.33;;;;;;;;;;5074390;28;20217;-75
2023/12/19 07:28:17;;;;;;;6.50;4.27;;;;;;;;;;5070024;28;20290;-76
2023/12/19 07:30:43;;;;;;;9.53;4.03;;;;;;;;;;5072514;28;20231;-76
2023/12/19 07:33:09;;;;;;;7.17;3.90;;;;;;;;;;5074861;28;20218;-74
2023/12/19 07:35:35;;;;;;;6.43;4.20;;;;;;;;;;5069774;28;20735;-74
2023/12/19 07:38:01;;;;;;;6.77;3.97;;;;;;;;;;5076387;28;20297;-76
2023/12/19 07:40:27;;;;;;;7.40;4.33;;;;;;;;;;5055610;28;20685;-76
2023/12/19 07:42:54;;;;;;;5.60;4.03;;;;;;;;;;5074849;28;20694;-75
2023/12/19 07:45:20;;;;;;;6.57;4.07;;;;;;;;;;5073825;28;20213;-76
2023/12/19 07:47:46;;;;;;;9.50;4.50;;;;;;;;;;5075586;28;20205;-75
2023/12/19 07:50:12;;;;;;;8.43;4.40;;;;;;;;;;5075488;28;20203;-77
2023/12/19 07:52:39;;;;;;;8.60;4.30;;;;;;;;;;5072362;28;20213;-77
2023/12/19 07:55:09;;;;;;;9.70;5.00;;;;;;;;;;5073877;28;20203;-76
2023/12/19 07:57:36;;;;;;;7.30;4.87;;;;;;;;;;5068338;28;20225;-75
2023/12/19 08:00:03;;;;;;;8.10;4.77;;;;;;;;;;5070812;28;20187;-77
2023/12/19 08:02:30;;;;;;;8.03;4.73;;;;;;;;;;5071742;28;20167;-73
2023/12/19 08:04:56;;;;;;;7.97;5.40;;;;;;;;;;5071748;28;20209;-77
2023/12/19 08:07:23;;;;;;;8.67;5.23;;;;;;;;;;5077765;28;20207;-77
2023/12/19 08:09:49;;;;;;;8.60;5.17;;;;;;;;;;5069144;28;20265;-76
2023/12/19 08:12:15;;;;;;;8.17;4.80;;;;;;;;;;5075311;28;20720;-76
2023/12/19 08:14:41;;;;;;;7.87;4.47;;;;;;;;;;5070274;28;20199;-77
2023/12/19 08:17:07;;;;;;;7.33;4.67;;;;;;;;;;5071861;28;20206;-76
2023/12/19 08:19:33;;;;;;;7.70;4.73;;;;;;;;;;5070889;28;20205;-77
2023/12/19 08:21:59;;;;;;;6.83;5.03;;;;;;;;;;5072375;28;20588;-76
2023/12/19 08:24:25;;;;;;;8.13;5.10;;;;;;;;;;5068883;28;20788;-76
2023/12/19 08:26:52;;;;;;;9.10;5.40;;;;;;;;;;5069176;28;20898;-77
2023/12/19 08:29:18;;;;;;;7.03;5.07;;;;;;;;;;5071826;28;20520;-77
2023/12/19 08:31:49;;;;;;;7.53;5.07;;;;;;;;;;5073169;28;20260;-75
2023/12/19 08:34:17;;;;;;;8.97;4.40;;;;;;;;;;5071349;28;20229;-75
2023/12/19 08:36:44;;;;;;;8.53;5.60;;;;;;;;;;5067237;28;20225;-76
2023/12/19 08:39:10;;;;;;;9.53;4.87;;;;;;;;;;5068855;28;20629;-75
2023/12/19 08:41:37;;;;;;;10.80;5.90;;;;;;;;;;5068911;28;20172;-76
2023/12/19 08:44:03;;;;;;;10.13;5.17;;;;;;;;;;5072482;28;20228;-74
2023/12/19 08:46:29;;;;;;;7.30;5.43;;;;;;;;;;5073161;28;20210;-74
2023/12/19 08:48:56;;;;;;;9.87;5.20;;;;;;;;;;5066581;28;20203;-74
2023/12/19 08:51:22;;;;;;;9.97;4.83;;;;;;;;;;5073150;28;20272;-75
2023/12/19 08:53:48;;;;;;;5.33;3.97;;;;;;;;;;5071984;28;20266;-75
2023/12/19 08:56:14;;;;;;;9.70;5.03;;;;;;;;;;5069726;28;20849;-74
2023/12/19 08:58:43;;;;;;;7.17;4.73;;;;;;;;;;5074788;28;20208;-75
2023/12/19 09:01:09;;;;;;;7.70;4.63;;;;;;;;;;5070490;28;20784;-75
2023/12/19 09:03:35;;;;;;;8.40;5.17;;;;;;;;;;5051756;28;20221;-74
2023/12/19 09:06:01;;;;;;;8.57;5.23;;;;;;;;;;5074425;28;20175;-77
2023/12/19 09:08:27;;;;;;;8.53;4.80;;;;;;;;;;5072826;28;20186;-77
2023/12/19 09:10:53;;;;;;;8.10;5.07;;;;;;;;;;5070502;28;20211;-76
2023/12/19 09:13:21;;;;;;;8.17;4.63;;;;;;;;;;5070212;28;20799;-77
2023/12/19 09:15:47;;;;;;;8.97;4.80;;;;;;;;;;5066352;28;20221;-78
2023/12/19 09:18:13;;;;;;;10.10;4.70;;;;;;;;;;5070297;28;20772;-77
2023/12/19 09:20:39;;;;;;;6.20;4.80;;;;;;;;;;5076840;28;20266;-78
2023/12/19 09:23:06;;;;;;;7.70;4.93;;;;;;;;;;5073452;28;20203;-75
2023/12/19 09:25:32;;;;;;;7.27;4.93;;;;;;;;;;5071834;28;20210;-78
2023/12/19 09:27:58;;;;;;;7.73;4.30;;;;;;;;;;5057194;28;20597;-77
2023/12/19 09:30:24;;;;;;;8.63;4.53;;;;;;;;;;5069519;28;20219;-75
2023/12/19 09:32:50;;;;;;;6.40;4.47;;;;;;;;;;5076044;28;20178;-78
2023/12/19 09:35:16;;;;;;;8.50;4.57;;;;;;;;;;5073632;28;20171;-78
2023/12/19 09:37:44;;;;;;;7.67;5.03;;;;;;;;;;5065572;28;20218;-77
2023/12/19 09:40:14;;;;;;;6.83;4.17;;;;;;;;;;5068374;28;20320;-75
2023/12/19 09:42:41;;;;;;;7.33;4.27;;;;;;;;;;5068559;28;20700;-77
2023/12/19 09:45:07;;;;;;;9.60;4.87;;;;;;;;;;5073323;28;20222;-78
2023/12/19 09:47:36;;;;;;;6.87;4.27;;;;;;;;;;5073531;28;20199;-77
2023/12/19 09:50:03;;;;;;;7.77;4.67;;;;;;;;;;5072821;28;20217;-78
2023/12/19 09:52:29;;;;;;;6.47;4.43;;;;;;;;;;5071637;28;20581;-78
2023/12/19 09:54:55;;;;;;;7.83;4.20;;;;;;;;;;5074592;28;20213;-77
2023/12/19 09:57:21;;;;;;;7.53;4.50;;;;;;;;;;5075305;28;20218;-77
2023/12/19 09:59:50;;;;;;;7.70;4.70;;;;;;;;;;5070291;28;20225;-77
2023/12/19 10:02:17;;;;;;;6.20;3.87;;;;;;;;;;5072641;28;20170;-78
2023/12/19 10:04:43;;;;;;;6.93;4.23;;;;;;;;;;5069802;28;20234;-77
2023/12/19 10:07:09;;;;;;;6.87;4.50;;;;;;;;;;5072771;28;20222;-76
2023/12/19 10:09:51;;;;;;;6.70;4.20;;;;;;;;;;5069071;28;20218;-74
2023/12/19 10:12:17;;;;;;;6.63;4.27;;;;;;;;;;5065738;28;20215;-76
2023/12/19 10:14:46;;;;;;;7.90;4.67;;;;;;;;;;5064456;28;20545;-76
2023/12/19 10:17:17;;;;;;;8.27;4.93;;;;;;;;;;5069754;28;20211;-77
2023/12/19 10:19:43;;;;;;;6.90;4.23;;;;;;;;;;5071508;28;20221;-76
2023/12/19 10:22:10;;;;;;;7.03;4.50;;;;;;;;;;5071293;28;20282;-75
2023/12/19 10:24:37;;;;;;;6.53;4.33;;;;;;;;;;5073997;28;20211;-76
2023/12/19 10:27:05;;;;;;;7.63;4.80;;;;;;;;;;5074715;28;20198;-75
2023/12/19 10:29:38;;;;;;;7.03;4.70;;;;;;;;;;5075886;28;20179;-77
2023/12/19 10:32:17;;;;;;;8.87;5.43;;;;;;;;;;5047142;28;20252;-76
2023/12/19 10:35:01;;;;;;;8.30;4.63;;;;;;;;;;5071057;28;20206;-75
2023/12/19 10:37:28;;;;;;;10.20;5.27;;;;;;;;;;5072375;28;20235;-77
2023/12/19 10:40:09;;;;;;;7.50;4.77;;;;;;;;;;5070556;28;20218;-76
2023/12/19 10:42:35;;;;;;;8.10;4.73;;;;;;;;;;5074291;28;20256;-75
2023/12/19 10:45:03;;;;;;;7.57;4.73;;;;;;;;;;5072300;28;20168;-75
2023/12/19 10:47:29;;;;;;;8.13;5.07;;;;;;;;;;5073653;28;20248;-75
2023/12/19 10:49:55;;;;;;;8.90;5.37;;;;;;;;;;5071275;28;20285;-75
2023/12/19 10:52:22;;;;;;;9.17;5.47;;;;;;;;;;5075217;28;20203;-74
2023/12/19 10:54:50;;;;;;;6.87;4.33;;;;;;;;;;5046230;28;20685;-75
2023/12/19 10:57:17;;;;;;;7.43;4.97;;;;;;;;;;5076006;28;20602;-77
2023/12/19 10:59:55;;;;;;;8.80;5.17;;;;;;;;;;5070646;28;20183;-75
2023/12/19 11:02:34;;;;;;;7.80;4.50;;;;;;;;;;5069053;28;20211;-75
2023/12/19 11:05:20;;;;;;;7.73;4.77;;;;;;;;;;5072909;28;20218;-72
2023/12/19 11:07:47;;;;;;;10.57;6.07;;;;;;;;;;5074533;28;22929;-73
2023/12/19 11:10:13;;;;;;;6.73;4.73;;;;;;;;;;5053551;28;20223;-75
2023/12/19 11:12:41;;;;;;;9.10;5.67;;;;;;;;;;5067509;28;20704;-74
2023/12/19 11:15:07;;;;;;;9.00;5.83;;;;;;;;;;5072415;28;20217;-77
2023/12/19 11:17:41;;;;;;;7.53;4.67;;;;;;;;;;5073823;28;20201;-76
2023/12/19 11:20:14;;;;;;;10.03;5.93;;;;;;;;;;5066517;28;20265;-75
2023/12/19 11:22:47;;;;;;;10.20;5.33;;;;;;;;;;5075902;28;20210;-75
2023/12/19 11:25:16;;;;;;;7.80;5.10;;;;;;;;;;5073069;28;20263;-75
2023/12/19 11:27:52;;;;;;;7.37;5.13;;;;;;;;;;5070556;28;20226;-71
2023/12/19 11:30:35;;;;;;;7.73;4.63;;;;;;;;;;5074937;28;20222;-73
2023/12/19 11:33:01;;;;;;;9.40;5.60;;;;;;;;;;5069346;28;20215;-74
2023/12/19 11:35:31;;;;;;;10.70;5.63;;;;;;;;;;5055558;28;20213;-74
2023/12/19 11:38:26;;;;;;;9.77;5.17;;;;;;;;;;5071174;28;20755;-74
2023/12/19 11:40:52;;;;;;;8.23;4.57;;;;;;;;;;5069581;28;20218;-73
2023/12/19 11:43:31;;;;;;;7.33;4.87;;;;;;;;;;5070402;28;20207;-73
2023/12/19 11:45:58;;;;;;;8.03;5.00;;;;;;;;;;5069552;28;20255;-74
2023/12/19 11:48:34;;;;;;;8.07;4.73;;;;;;;;;;5068522;28;20203;-74
2023/12/19 11:51:00;;;;;;;8.10;4.83;;;;;;;;;;5070854;28;20228;-74
2023/12/19 11:53:27;;;;;;;8.60;4.67;;;;;;;;;;5072490;28;20232;-72
2023/12/19 11:56:05;;;;;;;10.40;5.80;;;;;;;;;;5072871;28;20221;-74
2023/12/19 11:58:31;;;;;;;8.47;5.20;;;;;;;;;;5068333;28;20218;-75
2023/12/19 12:01:01;;;;;;;10.20;5.50;;;;;;;;;;5073591;28;20238;-73
2023/12/19 12:03:27;;;;;;;7.77;4.77;;;;;;;;;;5072914;28;20233;-76
2023/12/19 12:05:54;;;;;;;8.53;5.00;;;;;;;;;;5069961;28;20198;-74
2023/12/19 12:08:21;;;;;;;7.33;4.93;;;;;;;;;;5072293;28;20179;-74
2023/12/19 12:11:01;;;;;;;7.77;4.47;;;;;;;;;;5069373;28;20261;-76
2023/12/19 12:13:27;;;;;;;9.83;5.50;;;;;;;;;;5070426;28;20260;-76
2023/12/19 12:15:54;;;;;;;9.60;5.13;;;;;;;;;;5066705;28;20214;-76
2023/12/19 12:18:20;;;;;;;9.50;5.27;;;;;;;;;;5070157;28;20296;-75
2023/12/19 12:20:46;;;;;;;8.30;5.30;;;;;;;;;;5071670;28;20182;-75
2023/12/19 12:23:12;;;;;;;11.03;5.77;;;;;;;;;;5071478;28;20225;-76
2023/12/19 12:25:38;;;;;;;9.23;5.03;;;;;;;;;;5072088;28;20211;-76
2023/12/19 12:28:07;;;;;;;10.70;5.57;;;;;;;;;;5070191;28;20221;-74
2023/12/19 12:30:34;;;;;;;10.00;5.73;;;;;;;;;;5070824;28;20818;-74
2023/12/19 12:33:02;;;;;;;10.60;6.20;;;;;;;;;;5069810;28;20212;-72
2023/12/19 12:35:30;;;;;;;10.03;5.97;;;;;;;;;;5049615;28;20175;-72
2023/12/19 12:38:00;;;;;;;11.33;6.27;;;;;;;;;;5067975;28;20757;-75
2023/12/19 12:40:26;;;;;;;9.80;6.13;;;;;;;;;;5069210;28;20860;-73
2023/12/19 12:43:11;;;;;;;9.97;5.87;;;;;;;;;;5054635;28;20769;-73
2023/12/19 12:45:38;;;;;;;11.47;6.07;;;;;;;;;;5071240;28;20217;-74
2023/12/19 12:48:13;;;;;;;12.80;7.17;;;;;;;;;;5069660;28;20202;-73
2023/12/19 12:50:40;;;;;;;11.13;6.10;;;;;;;;;;5064547;28;20202;-75
2023/12/19 12:53:12;;;;;;;11.03;6.53;;;;;;;;;;5057489;28;20210;-76
2023/12/19 12:55:38;;;;;;;11.67;6.47;;;;;;;;;;5074134;28;20206;-71
2023/12/19 12:58:04;;;;;;;10.60;5.97;;;;;;;;;;5072460;28;20225;-73
2023/12/19 13:00:30;;;;;;;9.53;5.73;;;;;;;;;;5074779;28;20301;-74
2023/12/19 13:02:56;;;;;;;10.20;5.77;;;;;;;;;;5070508;28;20191;-75
2023/12/19 13:05:23;;;;;;;9.30;5.90;;;;;;;;;;5073386;28;20193;-74
2023/12/19 13:07:50;;;;;;;11.93;5.60;;;;;;;;;;5067696;28;20591;-74
2023/12/19 13:10:16;;;;;;;11.67;6.27;;;;;;;;;;5070062;28;20223;-73
2023/12/19 13:12:43;;;;;;;10.23;5.33;;;;;;;;;;5076338;28;20297;-74
2023/12/19 13:15:09;;;;;;;10.50;5.97;;;;;;;;;;5074564;28;20206;-74
2023/12/19 13:17:35;;;;;;;11.10;6.70;;;;;;;;;;5072166;28;20244;-72
2023/12/19 13:20:03;;;;;;;11.87;6.17;;;;;;;;;;5050401;28;20199;-73
2023/12/19 13:22:29;;;;;;;11.10;6.30;;;;;;;;;;5070213;28;20219;-74
2023/12/19 13:24:55;;;;;;;9.97;5.67;;;;;;;;;;5054122;28;20696;-73
2023/12/19 13:27:21;;;;;;;9.77;5.73;;;;;;;;;;5072589;28;20301;-74
2023/12/19 13:29:47;;;;;;;11.03;7.00;;;;;;;;;;5074405;28;20986;-74
2023/12/19 13:32:13;;;;;;;10.43;6.73;;;;;;;;;;5071538;28;20211;-73
2023/12/19 13:34:40;;;;;;;10.33;6.07;;;;;;;;;;5068863;28;20202;-74
2023/12/19 13:37:06;;;;;;;10.37;6.10;;;;;;;;;;5070479;28;20210;-74
2023/12/19 13:39:33;;;;;;;10.90;6.30;;;;;;;;;;5072429;28;20242;-74
2023/12/19 13:42:00;;;;;;;10.63;5.77;;;;;;;;;;5079461;28;20700;-73
2023/12/19 13:44:26;;;;;;;10.70;5.70;;;;;;;;;;5073973;28;20202;-74
2023/12/19 13:46:52;;;;;;;9.57;6.20;;;;;;;;;;5077814;28;20249;-74
2023/12/19 13:49:19;;;;;;;9.73;6.07;;;;;;;;;;5075436;28;20593;-75
2023/12/19 13:51:45;;;;;;;12.33;6.10;;;;;;;;;;5058696;28;20222;-73
2023/12/19 13:54:11;;;;;;;8.93;6.07;;;;;;;;;;5079107;28;20256;-75
2023/12/19 13:56:37;;;;;;;11.40;6.67;;;;;;;;;;5075614;28;20591;-73
2023/12/19 13:59:04;;;;;;;9.90;5.57;;;;;;;;;;5077918;28;20232;-74
2023/12/19 14:01:31;;;;;;;11.97;6.87;;;;;;;;;;5074587;28;20211;-74
2023/12/19 14:03:57;;;;;;;9.33;5.73;;;;;;;;;;5075634;28;20213;-74
2023/12/19 14:06:23;;;;;;;11.53;6.63;;;;;;;;;;5072603;28;20205;-73
2023/12/19 14:08:49;;;;;;;10.20;6.70;;;;;;;;;;5077365;28;20819;-74
2023/12/19 14:11:15;;;;;;;11.23;5.70;;;;;;;;;;5080447;28;20206;-73
2023/12/19 14:13:42;;;;;;;13.07;6.13;;;;;;;;;;5082566;28;20248;-74
2023/12/19 14:16:10;;;;;;;11.03;5.77;;;;;;;;;;5071893;28;20216;-75
2023/12/19 14:18:36;;;;;;;10.97;6.07;;;;;;;;;;5060521;28;20555;-74
2023/12/19 14:21:02;;;;;;;12.20;6.30;;;;;;;;;;5075020;28;20198;-75
2023/12/19 14:23:28;;;;;;;10.53;6.43;;;;;;;;;;5071242;28;20191;-74
2023/12/19 14:25:54;;;;;;;8.67;5.97;;;;;;;;;;5073576;28;20290;-72
2023/12/19 14:28:20;;;;;;;10.17;5.50;;;;;;;;;;5074141;28;20211;-74
2023/12/19 14:30:46;;;;;;;10.67;6.10;;;;;;;;;;5055862;28;20557;-76
2023/12/19 14:33:12;;;;;;;9.23;6.10;;;;;;;;;;5053742;28;20214;-73
2023/12/19 14:35:38;;;;;;;9.23;6.23;;;;;;;;;;5057069;28;20175;-75
2023/12/19 14:38:04;;;;;;;9.43;6.37;;;;;;;;;;5051742;28;20214;-73
2023/12/19 14:40:30;;;;;;;8.90;5.17;;;;;;;;;;5074875;28;20808;-74